Current | Forecast
Updated: 9:00 PM JST on June 27, 2017
Observed at Hiroshima Airport, Japan
Temperature 72°F
Humidity 83%
Dew Point 66°F
Wind Variable at 2 mph
Pressure 29.92 in (Rising)
Conditions Mostly Cloudy
Visibility 6.2 miles
UV 0 out of 16
Clouds (FEW) : 2000 ft
Scattered Clouds (SCT) : 3000 ft
Mostly Cloudy (BKN) : 4500 ft
Yesterday's Maximum 75°F
Yesterday's Minimum 68°F approx.
Yesterday's Cooling Degree Days 7 approx.
Sunrise4:59 AM JST
Sunset7:26 PM JST
Moon Rise8:15 AM JST
Moon Set10:06 PM JST
Moon PhaseMoon Phase
Waxing Crescent
Raw METARMETAR RJOA 271200Z VRB02KT 9999 FEW020 SCT030 BKN045 22/19 Q1013


Monday
. High: 65° F.
Tuesday
. High: 71° F.
Wednesday
. High: 71° F.
Thursday
. High: 69° F.
Friday
. High: 69° F.
Saturday
. High: 71° F.
Sunday
. High: 75° F.
Monday
. High: 77° F.

Units: English | Metric

Find the Weather for any City, State or Zipcode, or Country:

U.S. State List | Severe Weather | Tropical Storms | Ski Conditions
United States | Canada | Central America | South America | Asia | Europe | Australia | Africa | Islands

Weather Underground

© Copyright 2017
The Weather Company, LLC